RKSI/ICN METAR and TAF weather

Enter ICAO airport designator
Station Type Date Time Source
RKSI METAR 2021/04/13 08:00 UTC NOAA

RKSI 130800Z 29016KT 9999 FEW040 10/01 Q1014 NOSIG


Station Type Date Time Source
RKSI Decoded METAR 2021/04/13 08:00 UTC NOAA

Incheon International Airport, Korea, South (RKSI) 37-28N 126-27E
Apr 13, 2021 - 04:00 AM EDT / 2021.04.13 0800 UTC
Wind: from the WNW (290 degrees) at 18 MPH (16 KT):0
Visibility: greater than 7 mile(s):0
Sky conditions: mostly clear
Temperature: 50 F (10 C)
Dew Point: 33 F (1 C)
Relative Humidity: 53%
Pressure (altimeter): 29.94 in. Hg (1014 hPa)
ob: RKSI 130800Z 29016KT 9999 FEW040 10/01 Q1014 NOSIG
cycle: 8

Station Type Date Time Source
RKSI TAF 2021/04/13 07:39 UTC NOAA

TAF
AMD TAF
AMD RKSI 130635Z 1307/1412 30018G30KT CAVOK TN04/1321Z TX13/1405Z
BECMG 1313/1314 31010KT
BECMG 1400/1401 25008KT
BECMG 1403/1404 26015G25KT
BECMG 1410/1411 25010KT

Example: see airport list